sensor_id;sensor_type;location;lat;lon;timestamp;P1;durP1;ratioP1;P2;durP2;ratioP2
18364;SDS011;9309;52.126;11.616;2023-02-26T00:01:56;5.13;;;3.10;;
18364;SDS011;9309;52.126;11.616;2023-02-26T00:04:25;6.73;;;3.23;;
18364;SDS011;9309;52.126;11.616;2023-02-26T00:06:53;5.00;;;3.30;;
18364;SDS011;9309;52.126;11.616;2023-02-26T00:09:21;3.53;;;3.23;;
18364;SDS011;9309;52.126;11.616;2023-02-26T00:11:48;9.53;;;3.60;;
18364;SDS011;9309;52.126;11.616;2023-02-26T00:14:15;3.77;;;3.57;;
18364;SDS011;9309;52.126;11.616;2023-02-26T00:16:42;3.83;;;3.40;;
18364;SDS011;9309;52.126;11.616;2023-02-26T00:19:29;5.00;;;3.00;;
18364;SDS011;9309;52.126;11.616;2023-02-26T00:21:56;3.70;;;3.40;;
18364;SDS011;9309;52.126;11.616;2023-02-26T00:24:22;3.20;;;2.97;;
18364;SDS011;9309;52.126;11.616;2023-02-26T00:26:49;3.23;;;3.00;;
18364;SDS011;9309;52.126;11.616;2023-02-26T00:29:16;7.27;;;3.47;;
18364;SDS011;9309;52.126;11.616;2023-02-26T00:31:43;4.97;;;3.10;;
18364;SDS011;9309;52.126;11.616;2023-02-26T00:34:11;4.27;;;3.43;;
18364;SDS011;9309;52.126;11.616;2023-02-26T00:36:41;8.50;;;3.33;;
18364;SDS011;9309;52.126;11.616;2023-02-26T00:39:14;6.37;;;3.20;;
18364;SDS011;9309;52.126;11.616;2023-02-26T00:41:56;3.67;;;2.90;;
18364;SDS011;9309;52.126;11.616;2023-02-26T00:44:23;3.63;;;3.17;;
18364;SDS011;9309;52.126;11.616;2023-02-26T00:46:51;5.20;;;3.10;;
18364;SDS011;9309;52.126;11.616;2023-02-26T00:49:26;4.97;;;3.20;;
18364;SDS011;9309;52.126;11.616;2023-02-26T00:52:05;4.27;;;3.20;;
18364;SDS011;9309;52.126;11.616;2023-02-26T00:54:39;3.50;;;3.17;;
18364;SDS011;9309;52.126;11.616;2023-02-26T00:57:05;10.97;;;3.23;;
18364;SDS011;9309;52.126;11.616;2023-02-26T00:59:32;4.03;;;3.20;;
18364;SDS011;9309;52.126;11.616;2023-02-26T01:02:00;7.67;;;3.20;;
18364;SDS011;9309;52.126;11.616;2023-02-26T01:04:27;6.33;;;3.20;;
18364;SDS011;9309;52.126;11.616;2023-02-26T01:06:55;4.00;;;2.93;;
18364;SDS011;9309;52.126;11.616;2023-02-26T01:09:24;7.50;;;3.13;;
18364;SDS011;9309;52.126;11.616;2023-02-26T01:11:53;3.30;;;3.10;;
18364;SDS011;9309;52.126;11.616;2023-02-26T01:14:21;3.53;;;3.10;;
18364;SDS011;9309;52.126;11.616;2023-02-26T01:16:51;3.90;;;3.10;;
18364;SDS011;9309;52.126;11.616;2023-02-26T01:19:26;7.00;;;3.30;;
18364;SDS011;9309;52.126;11.616;2023-02-26T01:22:00;6.00;;;3.13;;
18364;SDS011;9309;52.126;11.616;2023-02-26T01:24:34;4.73;;;3.20;;
18364;SDS011;9309;52.126;11.616;2023-02-26T01:27:02;3.13;;;2.93;;
18364;SDS011;9309;52.126;11.616;2023-02-26T01:29:30;5.57;;;2.80;;
18364;SDS011;9309;52.126;11.616;2023-02-26T01:31:59;5.53;;;2.90;;
18364;SDS011;9309;52.126;11.616;2023-02-26T01:34:31;6.90;;;2.93;;
18364;SDS011;9309;52.126;11.616;2023-02-26T01:37:04;3.30;;;3.10;;
18364;SDS011;9309;52.126;11.616;2023-02-26T01:39:46;3.13;;;3.03;;
18364;SDS011;9309;52.126;11.616;2023-02-26T01:42:18;3.47;;;2.80;;
18364;SDS011;9309;52.126;11.616;2023-02-26T01:44:51;2.60;;;2.50;;
18364;SDS011;9309;52.126;11.616;2023-02-26T01:47:25;3.97;;;3.27;;
18364;SDS011;9309;52.126;11.616;2023-02-26T01:49:56;6.47;;;3.03;;
18364;SDS011;9309;52.126;11.616;2023-02-26T01:55:28;3.30;;;3.10;;
18364;SDS011;9309;52.126;11.616;2023-02-26T01:57:56;2.83;;;2.70;;
18364;SDS011;9309;52.126;11.616;2023-02-26T02:00:25;4.70;;;2.90;;
18364;SDS011;9309;52.126;11.616;2023-02-26T02:02:52;5.90;;;3.10;;
18364;SDS011;9309;52.126;11.616;2023-02-26T02:05:20;3.20;;;3.00;;
18364;SDS011;9309;52.126;11.616;2023-02-26T02:07:50;4.40;;;3.13;;
18364;SDS011;9309;52.126;11.616;2023-02-26T02:10:17;4.10;;;2.80;;
18364;SDS011;9309;52.126;11.616;2023-02-26T02:12:47;3.53;;;2.90;;
18364;SDS011;9309;52.126;11.616;2023-02-26T02:15:21;2.80;;;2.60;;
18364;SDS011;9309;52.126;11.616;2023-02-26T02:17:54;3.43;;;2.80;;
18364;SDS011;9309;52.126;11.616;2023-02-26T02:20:46;2.93;;;2.83;;
18364;SDS011;9309;52.126;11.616;2023-02-26T02:23:41;3.30;;;3.00;;
18364;SDS011;9309;52.126;11.616;2023-02-26T02:26:14;2.93;;;2.83;;
18364;SDS011;9309;52.126;11.616;2023-02-26T02:29:14;8.90;;;3.07;;
18364;SDS011;9309;52.126;11.616;2023-02-26T02:32:08;7.37;;;3.23;;
18364;SDS011;9309;52.126;11.616;2023-02-26T02:34:38;2.80;;;2.70;;
18364;SDS011;9309;52.126;11.616;2023-02-26T02:37:10;4.43;;;3.13;;
18364;SDS011;9309;52.126;11.616;2023-02-26T02:39:42;3.30;;;3.03;;
18364;SDS011;9309;52.126;11.616;2023-02-26T02:42:17;3.03;;;2.73;;
18364;SDS011;9309;52.126;11.616;2023-02-26T02:44:50;3.43;;;3.20;;
18364;SDS011;9309;52.126;11.616;2023-02-26T02:47:22;3.47;;;2.80;;
18364;SDS011;9309;52.126;11.616;2023-02-26T02:49:55;3.10;;;2.90;;
18364;SDS011;9309;52.126;11.616;2023-02-26T02:52:27;3.30;;;3.10;;
18364;SDS011;9309;52.126;11.616;2023-02-26T02:54:57;2.87;;;2.77;;
18364;SDS011;9309;52.126;11.616;2023-02-26T02:57:28;4.17;;;2.70;;
18364;SDS011;9309;52.126;11.616;2023-02-26T03:00:00;2.90;;;2.70;;
18364;SDS011;9309;52.126;11.616;2023-02-26T03:02:33;2.83;;;2.63;;
18364;SDS011;9309;52.126;11.616;2023-02-26T03:05:06;4.20;;;2.93;;
18364;SDS011;9309;52.126;11.616;2023-02-26T03:07:33;5.57;;;3.00;;
18364;SDS011;9309;52.126;11.616;2023-02-26T03:10:05;3.00;;;2.80;;
18364;SDS011;9309;52.126;11.616;2023-02-26T03:12:32;7.90;;;3.50;;
18364;SDS011;9309;52.126;11.616;2023-02-26T03:15:00;2.87;;;2.77;;
18364;SDS011;9309;52.126;11.616;2023-02-26T03:17:30;3.33;;;3.00;;
18364;SDS011;9309;52.126;11.616;2023-02-26T03:20:08;7.37;;;3.00;;
18364;SDS011;9309;52.126;11.616;2023-02-26T03:22:42;3.07;;;2.87;;
18364;SDS011;9309;52.126;11.616;2023-02-26T03:25:22;3.10;;;2.90;;
18364;SDS011;9309;52.126;11.616;2023-02-26T03:27:54;2.60;;;2.57;;
18364;SDS011;9309;52.126;11.616;2023-02-26T03:30:28;4.57;;;3.17;;
18364;SDS011;9309;52.126;11.616;2023-02-26T03:33:03;4.17;;;3.30;;
18364;SDS011;9309;52.126;11.616;2023-02-26T03:35:37;6.37;;;3.17;;
18364;SDS011;9309;52.126;11.616;2023-02-26T03:38:10;3.87;;;3.23;;
18364;SDS011;9309;52.126;11.616;2023-02-26T03:40:42;4.47;;;2.63;;
18364;SDS011;9309;52.126;11.616;2023-02-26T03:43:14;3.37;;;3.17;;
18364;SDS011;9309;52.126;11.616;2023-02-26T03:45:45;4.50;;;2.93;;
18364;SDS011;9309;52.126;11.616;2023-02-26T03:48:18;3.00;;;2.90;;
18364;SDS011;9309;52.126;11.616;2023-02-26T03:50:48;3.10;;;2.90;;
18364;SDS011;9309;52.126;11.616;2023-02-26T03:53:26;4.07;;;2.87;;
18364;SDS011;9309;52.126;11.616;2023-02-26T03:56:02;4.93;;;3.30;;
18364;SDS011;9309;52.126;11.616;2023-02-26T03:59:09;3.00;;;2.80;;
18364;SDS011;9309;52.126;11.616;2023-02-26T04:01:44;2.90;;;2.73;;
18364;SDS011;9309;52.126;11.616;2023-02-26T04:04:20;5.90;;;3.10;;
18364;SDS011;9309;52.126;11.616;2023-02-26T04:06:50;2.77;;;2.63;;
18364;SDS011;9309;52.126;11.616;2023-02-26T04:09:19;3.47;;;2.90;;
18364;SDS011;9309;52.126;11.616;2023-02-26T04:11:46;3.10;;;2.90;;
18364;SDS011;9309;52.126;11.616;2023-02-26T04:14:15;4.23;;;2.80;;
18364;SDS011;9309;52.126;11.616;2023-02-26T04:16:42;3.00;;;2.80;;
18364;SDS011;9309;52.126;11.616;2023-02-26T04:19:10;2.93;;;2.63;;
18364;SDS011;9309;52.126;11.616;2023-02-26T04:21:38;4.63;;;2.93;;
18364;SDS011;9309;52.126;11.616;2023-02-26T04:24:05;3.43;;;3.23;;
18364;SDS011;9309;52.126;11.616;2023-02-26T04:26:33;2.83;;;2.73;;
18364;SDS011;9309;52.126;11.616;2023-02-26T04:29:00;2.57;;;2.40;;
18364;SDS011;9309;52.126;11.616;2023-02-26T04:31:27;4.77;;;2.93;;
18364;SDS011;9309;52.126;11.616;2023-02-26T04:33:53;2.60;;;2.60;;
18364;SDS011;9309;52.126;11.616;2023-02-26T04:36:20;3.00;;;2.80;;
18364;SDS011;9309;52.126;11.616;2023-02-26T04:38:48;5.93;;;2.90;;
18364;SDS011;9309;52.126;11.616;2023-02-26T04:41:15;3.00;;;2.80;;
18364;SDS011;9309;52.126;11.616;2023-02-26T04:43:44;2.60;;;2.50;;
18364;SDS011;9309;52.126;11.616;2023-02-26T04:46:18;2.73;;;2.63;;
18364;SDS011;9309;52.126;11.616;2023-02-26T04:48:45;2.83;;;2.63;;
18364;SDS011;9309;52.126;11.616;2023-02-26T04:51:12;2.73;;;2.50;;
18364;SDS011;9309;52.126;11.616;2023-02-26T04:53:38;3.17;;;2.67;;
18364;SDS011;9309;52.126;11.616;2023-02-26T04:56:07;2.97;;;2.70;;
18364;SDS011;9309;52.126;11.616;2023-02-26T04:58:35;3.33;;;2.93;;
18364;SDS011;9309;52.126;11.616;2023-02-26T05:01:07;3.20;;;2.77;;
18364;SDS011;9309;52.126;11.616;2023-02-26T05:03:34;3.03;;;2.73;;
18364;SDS011;9309;52.126;11.616;2023-02-26T05:06:00;2.70;;;2.50;;
18364;SDS011;9309;52.126;11.616;2023-02-26T05:08:27;2.53;;;2.47;;
18364;SDS011;9309;52.126;11.616;2023-02-26T05:10:54;2.93;;;2.50;;
18364;SDS011;9309;52.126;11.616;2023-02-26T05:13:22;2.93;;;2.77;;
18364;SDS011;9309;52.126;11.616;2023-02-26T05:15:48;2.70;;;2.60;;
18364;SDS011;9309;52.126;11.616;2023-02-26T05:18:15;3.20;;;2.67;;
18364;SDS011;9309;52.126;11.616;2023-02-26T05:20:42;3.10;;;2.90;;
18364;SDS011;9309;52.126;11.616;2023-02-26T05:23:08;3.00;;;2.80;;
18364;SDS011;9309;52.126;11.616;2023-02-26T05:25:37;2.70;;;2.53;;
18364;SDS011;9309;52.126;11.616;2023-02-26T05:28:04;4.43;;;2.70;;
18364;SDS011;9309;52.126;11.616;2023-02-26T05:30:32;2.83;;;2.60;;
18364;SDS011;9309;52.126;11.616;2023-02-26T05:32:58;2.90;;;2.70;;
18364;SDS011;9309;52.126;11.616;2023-02-26T05:35:25;2.50;;;2.30;;
18364;SDS011;9309;52.126;11.616;2023-02-26T05:37:52;3.70;;;2.77;;
18364;SDS011;9309;52.126;11.616;2023-02-26T05:40:18;3.00;;;2.80;;
18364;SDS011;9309;52.126;11.616;2023-02-26T05:42:45;3.00;;;2.80;;
18364;SDS011;9309;52.126;11.616;2023-02-26T05:45:12;2.80;;;2.60;;
18364;SDS011;9309;52.126;11.616;2023-02-26T05:47:40;2.87;;;2.70;;
18364;SDS011;9309;52.126;11.616;2023-02-26T05:50:07;2.90;;;2.70;;
18364;SDS011;9309;52.126;11.616;2023-02-26T05:52:34;2.70;;;2.57;;
18364;SDS011;9309;52.126;11.616;2023-02-26T05:55:01;2.70;;;2.60;;
18364;SDS011;9309;52.126;11.616;2023-02-26T05:57:28;2.50;;;2.40;;
18364;SDS011;9309;52.126;11.616;2023-02-26T05:59:55;2.80;;;2.60;;
18364;SDS011;9309;52.126;11.616;2023-02-26T06:02:22;2.80;;;2.60;;
18364;SDS011;9309;52.126;11.616;2023-02-26T06:04:49;2.93;;;2.43;;
18364;SDS011;9309;52.126;11.616;2023-02-26T06:07:16;2.97;;;2.43;;
18364;SDS011;9309;52.126;11.616;2023-02-26T06:09:43;7.83;;;2.50;;
18364;SDS011;9309;52.126;11.616;2023-02-26T06:12:10;3.93;;;2.80;;
18364;SDS011;9309;52.126;11.616;2023-02-26T06:14:37;2.93;;;2.67;;
18364;SDS011;9309;52.126;11.616;2023-02-26T06:17:03;4.87;;;2.80;;
18364;SDS011;9309;52.126;11.616;2023-02-26T06:19:30;2.77;;;2.50;;
18364;SDS011;9309;52.126;11.616;2023-02-26T06:22:01;4.90;;;2.77;;
18364;SDS011;9309;52.126;11.616;2023-02-26T06:24:28;3.10;;;2.80;;
18364;SDS011;9309;52.126;11.616;2023-02-26T06:26:54;5.23;;;2.90;;
18364;SDS011;9309;52.126;11.616;2023-02-26T06:29:21;2.70;;;2.50;;
18364;SDS011;9309;52.126;11.616;2023-02-26T06:31:48;3.33;;;2.50;;
18364;SDS011;9309;52.126;11.616;2023-02-26T06:34:14;2.77;;;2.57;;
18364;SDS011;9309;52.126;11.616;2023-02-26T06:36:41;4.63;;;2.70;;
18364;SDS011;9309;52.126;11.616;2023-02-26T06:39:09;2.67;;;2.47;;
18364;SDS011;9309;52.126;11.616;2023-02-26T06:41:36;2.73;;;2.50;;
18364;SDS011;9309;52.126;11.616;2023-02-26T06:44:03;2.93;;;2.63;;
18364;SDS011;9309;52.126;11.616;2023-02-26T06:46:30;4.43;;;2.60;;
18364;SDS011;9309;52.126;11.616;2023-02-26T06:48:57;3.87;;;2.70;;
18364;SDS011;9309;52.126;11.616;2023-02-26T06:51:24;5.13;;;2.63;;
18364;SDS011;9309;52.126;11.616;2023-02-26T06:53:51;4.10;;;2.80;;
18364;SDS011;9309;52.126;11.616;2023-02-26T06:56:19;3.67;;;2.60;;
18364;SDS011;9309;52.126;11.616;2023-02-26T06:58:45;5.03;;;2.63;;
18364;SDS011;9309;52.126;11.616;2023-02-26T07:01:12;3.23;;;2.80;;
18364;SDS011;9309;52.126;11.616;2023-02-26T07:03:38;4.30;;;2.50;;
18364;SDS011;9309;52.126;11.616;2023-02-26T07:06:05;2.90;;;2.70;;
18364;SDS011;9309;52.126;11.616;2023-02-26T07:08:32;4.93;;;2.80;;
18364;SDS011;9309;52.126;11.616;2023-02-26T07:10:59;2.73;;;2.50;;
18364;SDS011;9309;52.126;11.616;2023-02-26T07:13:27;2.83;;;2.70;;
18364;SDS011;9309;52.126;11.616;2023-02-26T07:15:54;2.53;;;2.53;;
18364;SDS011;9309;52.126;11.616;2023-02-26T07:18:21;2.67;;;2.67;;
18364;SDS011;9309;52.126;11.616;2023-02-26T07:20:48;5.50;;;2.60;;
18364;SDS011;9309;52.126;11.616;2023-02-26T07:23:15;2.60;;;2.40;;
18364;SDS011;9309;52.126;11.616;2023-02-26T07:25:42;2.40;;;2.40;;
18364;SDS011;9309;52.126;11.616;2023-02-26T07:28:08;4.40;;;2.60;;
18364;SDS011;9309;52.126;11.616;2023-02-26T07:30:36;5.07;;;2.80;;
18364;SDS011;9309;52.126;11.616;2023-02-26T07:33:06;2.60;;;2.50;;
18364;SDS011;9309;52.126;11.616;2023-02-26T07:35:33;2.60;;;2.53;;
18364;SDS011;9309;52.126;11.616;2023-02-26T07:38:00;2.80;;;2.70;;
18364;SDS011;9309;52.126;11.616;2023-02-26T07:40:28;2.50;;;2.50;;
18364;SDS011;9309;52.126;11.616;2023-02-26T07:42:55;5.53;;;2.50;;
18364;SDS011;9309;52.126;11.616;2023-02-26T07:45:21;4.97;;;2.60;;
18364;SDS011;9309;52.126;11.616;2023-02-26T07:47:50;2.53;;;2.43;;
18364;SDS011;9309;52.126;11.616;2023-02-26T07:50:17;2.77;;;2.67;;
18364;SDS011;9309;52.126;11.616;2023-02-26T07:52:45;3.33;;;2.80;;
18364;SDS011;9309;52.126;11.616;2023-02-26T07:55:11;2.50;;;2.50;;
18364;SDS011;9309;52.126;11.616;2023-02-26T07:57:38;3.97;;;2.50;;
18364;SDS011;9309;52.126;11.616;2023-02-26T08:00:06;2.70;;;2.57;;
18364;SDS011;9309;52.126;11.616;2023-02-26T08:02:37;2.63;;;2.40;;
18364;SDS011;9309;52.126;11.616;2023-02-26T08:05:05;2.77;;;2.43;;
18364;SDS011;9309;52.126;11.616;2023-02-26T08:07:32;3.67;;;2.40;;
18364;SDS011;9309;52.126;11.616;2023-02-26T08:09:59;2.80;;;2.37;;
18364;SDS011;9309;52.126;11.616;2023-02-26T08:12:25;2.30;;;2.30;;
18364;SDS011;9309;52.126;11.616;2023-02-26T08:14:52;2.50;;;2.30;;
18364;SDS011;9309;52.126;11.616;2023-02-26T08:17:19;2.30;;;2.20;;
18364;SDS011;9309;52.126;11.616;2023-02-26T08:19:45;5.43;;;2.70;;
18364;SDS011;9309;52.126;11.616;2023-02-26T08:22:13;1.93;;;1.93;;
18364;SDS011;9309;52.126;11.616;2023-02-26T08:24:40;3.10;;;2.20;;
18364;SDS011;9309;52.126;11.616;2023-02-26T08:27:07;2.40;;;2.30;;
18364;SDS011;9309;52.126;11.616;2023-02-26T08:29:33;2.43;;;2.10;;
18364;SDS011;9309;52.126;11.616;2023-02-26T08:32:00;2.47;;;2.27;;
18364;SDS011;9309;52.126;11.616;2023-02-26T08:34:27;2.20;;;2.10;;
18364;SDS011;9309;52.126;11.616;2023-02-26T08:36:54;3.17;;;2.20;;
18364;SDS011;9309;52.126;11.616;2023-02-26T08:39:22;3.50;;;2.13;;
18364;SDS011;9309;52.126;11.616;2023-02-26T08:41:48;6.07;;;2.50;;
18364;SDS011;9309;52.126;11.616;2023-02-26T08:44:15;5.67;;;2.00;;
18364;SDS011;9309;52.126;11.616;2023-02-26T08:46:41;1.97;;;1.80;;
18364;SDS011;9309;52.126;11.616;2023-02-26T08:49:08;4.37;;;1.90;;
18364;SDS011;9309;52.126;11.616;2023-02-26T08:51:35;2.27;;;2.17;;
18364;SDS011;9309;52.126;11.616;2023-02-26T08:54:02;1.80;;;1.80;;
18364;SDS011;9309;52.126;11.616;2023-02-26T08:56:30;1.90;;;1.80;;
18364;SDS011;9309;52.126;11.616;2023-02-26T08:58:56;2.13;;;2.03;;
18364;SDS011;9309;52.126;11.616;2023-02-26T09:01:23;2.27;;;1.97;;
18364;SDS011;9309;52.126;11.616;2023-02-26T09:03:50;2.73;;;2.07;;
18364;SDS011;9309;52.126;11.616;2023-02-26T09:06:16;2.10;;;1.77;;
18364;SDS011;9309;52.126;11.616;2023-02-26T09:08:43;2.10;;;2.00;;
18364;SDS011;9309;52.126;11.616;2023-02-26T09:11:09;2.03;;;2.00;;
18364;SDS011;9309;52.126;11.616;2023-02-26T09:13:37;1.80;;;1.80;;
18364;SDS011;9309;52.126;11.616;2023-02-26T09:16:04;3.63;;;2.10;;
18364;SDS011;9309;52.126;11.616;2023-02-26T09:18:32;3.20;;;2.00;;
18364;SDS011;9309;52.126;11.616;2023-02-26T09:20:59;2.17;;;2.07;;
18364;SDS011;9309;52.126;11.616;2023-02-26T09:23:26;2.33;;;2.10;;
18364;SDS011;9309;52.126;11.616;2023-02-26T09:25:53;2.73;;;1.60;;
18364;SDS011;9309;52.126;11.616;2023-02-26T09:28:21;1.90;;;1.80;;
18364;SDS011;9309;52.126;11.616;2023-02-26T09:30:51;2.00;;;1.90;;
18364;SDS011;9309;52.126;11.616;2023-02-26T09:33:18;2.67;;;1.97;;
18364;SDS011;9309;52.126;11.616;2023-02-26T09:35:46;1.90;;;1.90;;
18364;SDS011;9309;52.126;11.616;2023-02-26T09:38:13;2.93;;;1.80;;
18364;SDS011;9309;52.126;11.616;2023-02-26T09:40:41;1.90;;;1.90;;
18364;SDS011;9309;52.126;11.616;2023-02-26T09:43:19;2.97;;;2.30;;
18364;SDS011;9309;52.126;11.616;2023-02-26T09:46:16;2.03;;;2.00;;
18364;SDS011;9309;52.126;11.616;2023-02-26T09:48:50;2.17;;;1.90;;
18364;SDS011;9309;52.126;11.616;2023-02-26T09:51:27;2.97;;;2.10;;
18364;SDS011;9309;52.126;11.616;2023-02-26T09:53:54;6.10;;;2.33;;
18364;SDS011;9309;52.126;11.616;2023-02-26T09:56:24;2.67;;;2.00;;
18364;SDS011;9309;52.126;11.616;2023-02-26T09:58:54;2.30;;;2.10;;
18364;SDS011;9309;52.126;11.616;2023-02-26T10:01:26;2.67;;;2.03;;
18364;SDS011;9309;52.126;11.616;2023-02-26T10:03:58;2.67;;;2.13;;
18364;SDS011;9309;52.126;11.616;2023-02-26T10:06:37;2.00;;;1.90;;
18364;SDS011;9309;52.126;11.616;2023-02-26T10:09:19;2.03;;;2.03;;
18364;SDS011;9309;52.126;11.616;2023-02-26T10:11:59;4.10;;;2.03;;
18364;SDS011;9309;52.126;11.616;2023-02-26T10:14:32;1.67;;;1.67;;
18364;SDS011;9309;52.126;11.616;2023-02-26T10:17:11;2.20;;;1.70;;
18364;SDS011;9309;52.126;11.616;2023-02-26T10:19:46;1.90;;;1.70;;
18364;SDS011;9309;52.126;11.616;2023-02-26T10:22:19;2.40;;;1.73;;
18364;SDS011;9309;52.126;11.616;2023-02-26T10:24:51;5.67;;;2.00;;
18364;SDS011;9309;52.126;11.616;2023-02-26T10:27:23;1.50;;;1.50;;
18364;SDS011;9309;52.126;11.616;2023-02-26T10:30:03;1.80;;;1.60;;
18364;SDS011;9309;52.126;11.616;2023-02-26T10:32:38;1.70;;;1.60;;
18364;SDS011;9309;52.126;11.616;2023-02-26T10:35:12;1.80;;;1.70;;
18364;SDS011;9309;52.126;11.616;2023-02-26T10:37:43;2.30;;;1.70;;
18364;SDS011;9309;52.126;11.616;2023-02-26T10:40:15;2.37;;;1.77;;
18364;SDS011;9309;52.126;11.616;2023-02-26T10:42:45;3.20;;;2.00;;
18364;SDS011;9309;52.126;11.616;2023-02-26T10:48:10;4.03;;;1.70;;
18364;SDS011;9309;52.126;11.616;2023-02-26T10:50:47;2.00;;;1.80;;
18364;SDS011;9309;52.126;11.616;2023-02-26T10:53:16;2.87;;;1.60;;
18364;SDS011;9309;52.126;11.616;2023-02-26T10:55:43;1.70;;;1.60;;
18364;SDS011;9309;52.126;11.616;2023-02-26T10:58:15;2.97;;;1.77;;
18364;SDS011;9309;52.126;11.616;2023-02-26T11:00:44;1.77;;;1.67;;
18364;SDS011;9309;52.126;11.616;2023-02-26T11:03:14;2.03;;;1.87;;
18364;SDS011;9309;52.126;11.616;2023-02-26T11:05:44;1.80;;;1.60;;
18364;SDS011;9309;52.126;11.616;2023-02-26T11:08:12;1.80;;;1.70;;
18364;SDS011;9309;52.126;11.616;2023-02-26T12:38:58;1.10;;;1.10;;
18364;SDS011;9309;52.126;11.616;2023-02-26T12:41:47;1.20;;;1.20;;
18364;SDS011;9309;52.126;11.616;2023-02-26T12:44:30;1.13;;;1.07;;
18364;SDS011;9309;52.126;11.616;2023-02-26T12:47:20;1.33;;;1.20;;
18364;SDS011;9309;52.126;11.616;2023-02-26T12:50:02;1.40;;;1.30;;
18364;SDS011;9309;52.126;11.616;2023-02-26T12:52:50;1.90;;;1.60;;
18364;SDS011;9309;52.126;11.616;2023-02-26T12:55:47;1.40;;;1.40;;
18364;SDS011;9309;52.126;11.616;2023-02-26T12:58:39;1.63;;;1.53;;
18364;SDS011;9309;52.126;11.616;2023-02-26T13:01:22;1.70;;;1.60;;
18364;SDS011;9309;52.126;11.616;2023-02-26T13:06:57;2.00;;;1.30;;
18364;SDS011;9309;52.126;11.616;2023-02-26T13:09:37;1.30;;;1.30;;
18364;SDS011;9309;52.126;11.616;2023-02-26T13:12:15;1.70;;;1.60;;
18364;SDS011;9309;52.126;11.616;2023-02-26T13:14:54;1.60;;;1.50;;
18364;SDS011;9309;52.126;11.616;2023-02-26T13:17:32;1.57;;;1.40;;
18364;SDS011;9309;52.126;11.616;2023-02-26T13:20:09;1.37;;;1.27;;
18364;SDS011;9309;52.126;11.616;2023-02-26T13:22:40;1.37;;;1.37;;
18364;SDS011;9309;52.126;11.616;2023-02-26T13:25:14;1.63;;;1.50;;
18364;SDS011;9309;52.126;11.616;2023-02-26T13:27:44;1.57;;;1.43;;
18364;SDS011;9309;52.126;11.616;2023-02-26T13:30:17;1.60;;;1.33;;
18364;SDS011;9309;52.126;11.616;2023-02-26T13:32:52;1.57;;;1.47;;
18364;SDS011;9309;52.126;11.616;2023-02-26T13:35:23;3.60;;;1.40;;
18364;SDS011;9309;52.126;11.616;2023-02-26T13:37:53;1.30;;;1.30;;
18364;SDS011;9309;52.126;11.616;2023-02-26T13:40:28;1.50;;;1.40;;
18364;SDS011;9309;52.126;11.616;2023-02-26T13:43:11;1.10;;;1.10;;
18364;SDS011;9309;52.126;11.616;2023-02-26T13:45:49;1.13;;;1.13;;
18364;SDS011;9309;52.126;11.616;2023-02-26T13:48:34;1.10;;;1.00;;
18364;SDS011;9309;52.126;11.616;2023-02-26T13:51:07;1.30;;;1.20;;
18364;SDS011;9309;52.126;11.616;2023-02-26T13:53:46;1.00;;;1.00;;
18364;SDS011;9309;52.126;11.616;2023-02-26T13:56:20;1.00;;;1.00;;
18364;SDS011;9309;52.126;11.616;2023-02-26T13:58:50;1.58;;;1.00;;
18364;SDS011;9309;52.126;11.616;2023-02-26T14:01:25;1.08;;;1.08;;
18364;SDS011;9309;52.126;11.616;2023-02-26T14:04:05;1.48;;;1.17;;
18364;SDS011;9309;52.126;11.616;2023-02-26T14:06:38;1.10;;;1.05;;
18364;SDS011;9309;52.126;11.616;2023-02-26T14:12:00;0.80;;;0.80;;
18364;SDS011;9309;52.126;11.616;2023-02-26T14:14:35;1.07;;;1.07;;
18364;SDS011;9309;52.126;11.616;2023-02-26T14:17:18;2.50;;;1.03;;
18364;SDS011;9309;52.126;11.616;2023-02-26T14:22:52;1.30;;;1.20;;
18364;SDS011;9309;52.126;11.616;2023-02-26T14:25:36;1.47;;;1.43;;
18364;SDS011;9309;52.126;11.616;2023-02-26T14:31:15;1.40;;;1.40;;
18364;SDS011;9309;52.126;11.616;2023-02-26T14:33:57;1.73;;;1.50;;
18364;SDS011;9309;52.126;11.616;2023-02-26T14:36:31;1.20;;;1.20;;
18364;SDS011;9309;52.126;11.616;2023-02-26T14:39:01;1.30;;;1.30;;
18364;SDS011;9309;52.126;11.616;2023-02-26T14:41:33;1.40;;;1.40;;
18364;SDS011;9309;52.126;11.616;2023-02-26T14:44:06;1.23;;;1.23;;
18364;SDS011;9309;52.126;11.616;2023-02-26T14:46:38;1.40;;;1.40;;
18364;SDS011;9309;52.126;11.616;2023-02-26T14:49:07;1.67;;;1.60;;
18364;SDS011;9309;52.126;11.616;2023-02-26T14:51:46;1.87;;;1.70;;
18364;SDS011;9309;52.126;11.616;2023-02-26T14:54:38;1.80;;;1.60;;
18364;SDS011;9309;52.126;11.616;2023-02-26T14:57:25;1.63;;;1.60;;
18364;SDS011;9309;52.126;11.616;2023-02-26T15:00:06;1.90;;;1.80;;
18364;SDS011;9309;52.126;11.616;2023-02-26T15:02:46;1.57;;;1.57;;
18364;SDS011;9309;52.126;11.616;2023-02-26T15:05:38;2.03;;;1.93;;
18364;SDS011;9309;52.126;11.616;2023-02-26T15:08:14;1.60;;;1.60;;
18364;SDS011;9309;52.126;11.616;2023-02-26T15:11:08;1.50;;;1.50;;
18364;SDS011;9309;52.126;11.616;2023-02-26T15:13:58;1.70;;;1.67;;
18364;SDS011;9309;52.126;11.616;2023-02-26T15:16:44;1.70;;;1.70;;
18364;SDS011;9309;52.126;11.616;2023-02-26T15:19:22;2.70;;;1.50;;
18364;SDS011;9309;52.126;11.616;2023-02-26T15:22:02;1.70;;;1.60;;
18364;SDS011;9309;52.126;11.616;2023-02-26T15:24:39;1.83;;;1.73;;
18364;SDS011;9309;52.126;11.616;2023-02-26T15:27:06;4.97;;;2.27;;
18364;SDS011;9309;52.126;11.616;2023-02-26T15:29:39;3.73;;;2.20;;
18364;SDS011;9309;52.126;11.616;2023-02-26T15:32:13;2.03;;;1.93;;
18364;SDS011;9309;52.126;11.616;2023-02-26T15:34:44;3.10;;;1.90;;
18364;SDS011;9309;52.126;11.616;2023-02-26T15:37:18;1.73;;;1.73;;
18364;SDS011;9309;52.126;11.616;2023-02-26T15:39:47;2.00;;;1.90;;
18364;SDS011;9309;52.126;11.616;2023-02-26T15:42:14;2.10;;;2.10;;
18364;SDS011;9309;52.126;11.616;2023-02-26T15:44:43;1.90;;;1.90;;
18364;SDS011;9309;52.126;11.616;2023-02-26T15:47:10;2.03;;;1.93;;
18364;SDS011;9309;52.126;11.616;2023-02-26T15:49:40;2.07;;;1.90;;
18364;SDS011;9309;52.126;11.616;2023-02-26T15:52:11;2.00;;;1.87;;
18364;SDS011;9309;52.126;11.616;2023-02-26T15:54:41;2.20;;;2.10;;
18364;SDS011;9309;52.126;11.616;2023-02-26T15:57:10;2.10;;;2.00;;
18364;SDS011;9309;52.126;11.616;2023-02-26T15:59:39;2.27;;;1.93;;
18364;SDS011;9309;52.126;11.616;2023-02-26T16:02:09;1.93;;;1.90;;
18364;SDS011;9309;52.126;11.616;2023-02-26T16:04:37;2.30;;;2.20;;
18364;SDS011;9309;52.126;11.616;2023-02-26T16:07:04;2.33;;;2.30;;
18364;SDS011;9309;52.126;11.616;2023-02-26T16:09:34;2.83;;;1.87;;
18364;SDS011;9309;52.126;11.616;2023-02-26T16:12:05;2.47;;;1.90;;
18364;SDS011;9309;52.126;11.616;2023-02-26T16:14:36;1.93;;;1.93;;
18364;SDS011;9309;52.126;11.616;2023-02-26T16:17:05;2.03;;;1.93;;
18364;SDS011;9309;52.126;11.616;2023-02-26T16:19:37;2.27;;;2.17;;
18364;SDS011;9309;52.126;11.616;2023-02-26T16:22:10;2.43;;;2.23;;
18364;SDS011;9309;52.126;11.616;2023-02-26T16:24:42;3.20;;;2.40;;
18364;SDS011;9309;52.126;11.616;2023-02-26T16:27:11;2.20;;;2.10;;
18364;SDS011;9309;52.126;11.616;2023-02-26T16:29:42;2.10;;;1.97;;
18364;SDS011;9309;52.126;11.616;2023-02-26T16:32:12;2.00;;;2.00;;
18364;SDS011;9309;52.126;11.616;2023-02-26T16:34:41;2.30;;;2.20;;
18364;SDS011;9309;52.126;11.616;2023-02-26T16:37:09;2.13;;;2.13;;
18364;SDS011;9309;52.126;11.616;2023-02-26T16:39:43;2.00;;;2.00;;
18364;SDS011;9309;52.126;11.616;2023-02-26T16:42:14;2.20;;;2.10;;
18364;SDS011;9309;52.126;11.616;2023-02-26T16:44:48;2.63;;;2.43;;
18364;SDS011;9309;52.126;11.616;2023-02-26T16:47:17;2.47;;;2.37;;
18364;SDS011;9309;52.126;11.616;2023-02-26T16:49:45;3.33;;;2.53;;
18364;SDS011;9309;52.126;11.616;2023-02-26T16:52:14;3.50;;;2.40;;
18364;SDS011;9309;52.126;11.616;2023-02-26T16:54:47;2.77;;;2.50;;
18364;SDS011;9309;52.126;11.616;2023-02-26T16:57:24;2.80;;;2.60;;
18364;SDS011;9309;52.126;11.616;2023-02-26T16:59:57;3.20;;;3.10;;